Time;durP1;ratioP1;P1;durP2;ratioP2;P2;SDS_P1;SDS_P2;PMS_P1;PMS_P2;Temp;Humidity;BMP_temperature;BMP_pressure;BME280_temperature;BME280_humidity;BME280_pressure;Samples;Min_cycle;Max_cycle;Signal;HPM_P1;HPM_P2
2022/11/25 00:00:27;;;;;;;148.57;75.32;;;;;;;4.35;80.72;100308.77;2151617;82;32950;-67
2022/11/25 00:03:30;;;;;;;140.00;73.02;;;;;;;4.35;80.64;100299.48;2107725;82;27778;-68
2022/11/25 00:06:34;;;;;;;143.93;74.75;;;;;;;4.36;80.69;100299.05;2154975;81;27782;-68
2022/11/25 00:09:36;;;;;;;114.33;57.60;;;;;;;4.35;80.65;100297.30;2154851;82;28951;-67
2022/11/25 00:12:38;;;;;;;144.87;75.57;;;;;;;4.35;80.73;100292.86;2154610;82;30989;-67
2022/11/25 00:15:39;;;;;;;140.40;73.22;;;;;;;4.38;80.76;100292.79;2116341;84;32942;-68
2022/11/25 00:18:47;;;;;;;140.37;72.30;;;;;;;4.40;80.76;100288.77;2168609;82;29656;-68
2022/11/25 00:21:50;;;;;;;137.62;71.30;;;;;;;4.44;80.79;100284.28;2168599;82;27644;-69
2022/11/25 00:24:51;;;;;;;129.63;67.95;;;;;;;4.45;80.74;100289.53;2168460;82;29361;-70
2022/11/25 00:27:53;;;;;;;128.30;68.30;;;;;;;4.48;80.79;100290.78;2169696;81;30966;-69
2022/11/25 00:30:54;;;;;;;134.45;70.47;;;;;;;4.48;80.71;100289.90;2156723;82;32942;-67
2022/11/25 00:33:57;;;;;;;132.43;70.57;;;;;;;4.50;80.71;100297.38;2160948;81;29214;-67
2022/11/25 00:36:59;;;;;;;143.55;72.27;;;;;;;4.51;80.68;100300.44;2150154;82;27811;-67
2022/11/25 00:40:00;;;;;;;135.45;69.97;;;;;;;4.52;80.62;100305.73;2150047;82;28744;-67
2022/11/25 00:46:22;;;;;;;134.85;71.17;;;;;;;4.51;80.58;100295.14;2199785;80;33026;-68
2022/11/25 00:49:25;;;;;;;144.57;72.53;;;;;;;4.50;80.62;100309.31;2200042;80;29384;-68
2022/11/25 00:52:26;;;;;;;137.95;73.42;;;;;;;4.51;80.64;100309.73;2182259;80;27649;-68
2022/11/25 00:56:11;;;;;;;141.37;72.53;;;;;;;4.51;80.68;100311.94;2200060;80;29436;-68
2022/11/25 00:58:32;;;;;;;135.32;72.35;;;;;;;4.50;80.67;100310.20;2197385;80;31255;-67
2022/11/25 01:01:35;;;;;;;144.90;73.62;;;;;;;4.52;80.72;100310.14;2224033;78;32975;-68
2022/11/25 01:04:37;;;;;;;145.25;75.42;;;;;;;4.52;80.74;100312.36;2225134;79;29462;-68
2022/11/25 01:07:38;;;;;;;145.92;75.32;;;;;;;4.54;80.77;100318.94;2225637;79;27777;-67
2022/11/25 01:10:39;;;;;;;140.18;73.90;;;;;;;4.55;80.75;100312.73;2166608;81;30023;-67
2022/11/25 01:13:41;;;;;;;134.72;70.45;;;;;;;4.57;80.81;100320.20;2119359;83;31092;-69
2022/11/25 01:16:43;;;;;;;139.52;71.35;;;;;;;4.57;80.77;100321.53;2158042;82;32977;-68
2022/11/25 01:19:44;;;;;;;136.72;68.87;;;;;;;4.59;80.84;100316.17;2142420;83;29895;-67
2022/11/25 01:22:46;;;;;;;136.30;70.03;;;;;;;4.62;80.89;100318.75;2133094;82;27740;-69
2022/11/25 01:25:50;;;;;;;140.80;67.95;;;;;;;4.62;80.94;100316.98;2221365;80;28761;-68
2022/11/25 01:28:59;;;;;;;134.07;62.45;;;;;;;4.63;80.88;100318.73;2220367;80;31840;-68
2022/11/25 01:32:01;;;;;;;123.30;63.33;;;;;;;4.64;80.93;100314.28;2195168;79;32424;-68
2022/11/25 01:35:04;;;;;;;119.15;60.00;;;;;;;4.65;81.01;100314.23;2219957;80;30107;-66
2022/11/25 01:38:05;;;;;;;119.02;59.15;;;;;;;4.66;81.01;100319.10;2220008;80;27677;-66
2022/11/25 01:41:11;;;;;;;121.33;57.95;;;;;;;4.66;81.04;100312.47;2220018;80;28623;-66
2022/11/25 01:44:20;;;;;;;120.62;55.65;;;;;;;4.66;81.12;100315.98;2219719;80;31009;-68
2022/11/25 01:47:23;;;;;;;126.95;57.03;;;;;;;4.67;81.14;100308.44;2219947;80;32963;-66
2022/11/25 01:50:26;;;;;;;134.12;54.83;;;;;;;4.69;81.23;100309.74;2170827;80;29380;-69
2022/11/25 01:53:27;;;;;;;129.35;55.40;;;;;;;4.68;81.27;100310.65;2192590;80;27697;-70
2022/11/25 01:56:34;;;;;;;128.38;54.55;;;;;;;4.70;81.29;100312.81;2181960;80;28723;-68
2022/11/25 01:59:41;;;;;;;140.12;57.23;;;;;;;4.70;81.31;100307.51;2182389;81;31862;-70
2022/11/25 02:02:43;;;;;;;139.20;55.65;;;;;;;4.70;81.34;100310.16;2188390;81;33914;-68
2022/11/25 02:06:12;;;;;;;138.07;56.48;;;;;;;4.69;81.38;100318.56;2189284;81;30009;-69
2022/11/25 02:13:49;;;;;;;113.72;50.75;;;;;;;4.69;81.44;100309.74;2188922;81;27681;-66
2022/11/25 02:17:08;;;;;;;123.60;53.92;;;;;;;4.68;81.55;100304.02;2188849;81;28205;-66
2022/11/25 02:20:14;;;;;;;128.30;51.35;;;;;;;4.69;81.62;100309.27;2189273;81;32953;-66
2022/11/25 02:23:30;;;;;;;113.32;49.35;;;;;;;4.70;81.60;100302.20;2189158;81;29968;-66
2022/11/25 02:26:31;;;;;;;112.95;49.15;;;;;;;4.71;81.62;100303.47;2181503;81;27705;-67
2022/11/25 02:29:33;;;;;;;111.47;49.65;;;;;;;4.71;81.56;100297.31;2188872;81;29726;-68
2022/11/25 02:32:34;;;;;;;121.40;54.45;;;;;;;4.69;81.53;100305.30;2189091;81;31010;-65
2022/11/25 02:35:58;;;;;;;124.58;54.55;;;;;;;4.69;81.53;100304.44;2189405;81;32978;-69
2022/11/25 02:39:00;;;;;;;115.30;52.40;;;;;;;4.65;81.53;100306.27;2221290;78;29376;-70
2022/11/25 02:42:01;;;;;;;113.42;53.40;;;;;;;4.64;81.55;100308.98;2223051;79;28153;-70
2022/11/25 02:45:05;;;;;;;125.70;56.58;;;;;;;4.63;81.59;100311.21;2223620;79;28614;-70
2022/11/25 02:48:07;;;;;;;133.72;58.50;;;;;;;4.62;81.65;100316.10;2224178;79;31005;-70
2022/11/25 02:51:13;;;;;;;113.15;52.62;;;;;;;4.62;81.71;100318.75;2224285;79;32961;-68
2022/11/25 02:54:15;;;;;;;125.50;53.00;;;;;;;4.63;81.74;100328.45;2224189;80;29345;-69
2022/11/25 02:57:16;;;;;;;112.12;53.10;;;;;;;4.61;81.72;100327.19;2223001;80;28237;-69
2022/11/25 03:00:18;;;;;;;129.57;55.88;;;;;;;4.60;81.67;100326.77;2221680;79;28642;-69
2022/11/25 03:03:20;;;;;;;132.47;55.52;;;;;;;4.60;81.76;100329.85;2218669;80;32000;-69
2022/11/25 03:06:21;;;;;;;120.87;53.38;;;;;;;4.62;81.79;100333.34;2217662;80;33018;-69
2022/11/25 03:09:22;;;;;;;133.97;58.85;;;;;;;4.64;81.85;100336.37;2189433;81;30073;-69
2022/11/25 03:12:24;;;;;;;130.95;58.98;;;;;;;4.64;81.86;100335.52;2189485;81;27722;-69
2022/11/25 03:15:25;;;;;;;135.15;60.17;;;;;;;4.64;81.88;100337.70;2189550;81;28648;-69
2022/11/25 03:18:26;;;;;;;142.07;63.15;;;;;;;4.65;81.87;100343.42;2189264;81;31825;-70
2022/11/25 03:21:28;;;;;;;132.85;60.83;;;;;;;4.62;81.86;100344.84;2189279;80;32940;-69
2022/11/25 03:24:29;;;;;;;140.52;61.75;;;;;;;4.60;81.88;100344.45;2189543;81;29311;-70
2022/11/25 03:27:32;;;;;;;137.05;63.45;;;;;;;4.59;81.97;100352.87;2189413;80;28193;-68
2022/11/25 03:30:34;;;;;;;133.12;61.98;;;;;;;4.61;82.04;100348.41;2189280;81;29460;-69
2022/11/25 03:33:35;;;;;;;144.35;64.87;;;;;;;4.61;82.07;100338.23;2189169;81;31037;-69
2022/11/25 03:36:38;;;;;;;136.92;63.00;;;;;;;4.62;82.07;100347.94;2189385;81;32980;-69
2022/11/25 03:39:39;;;;;;;130.82;60.03;;;;;;;4.61;82.09;100346.19;2189191;81;29403;-69
2022/11/25 03:42:41;;;;;;;129.63;55.48;;;;;;;4.62;82.12;100342.20;2189479;81;27668;-69
2022/11/25 03:45:42;;;;;;;125.22;56.18;;;;;;;4.63;82.18;100337.30;2189266;80;28096;-69
2022/11/25 03:48:44;;;;;;;121.42;54.63;;;;;;;4.66;82.24;100335.87;2189360;81;30992;-69
2022/11/25 03:51:46;;;;;;;129.78;54.67;;;;;;;4.70;82.30;100340.21;2189322;81;33602;-71
2022/11/25 03:54:47;;;;;;;130.05;55.00;;;;;;;4.71;82.28;100331.34;2189277;81;29369;-70
2022/11/25 03:57:48;;;;;;;131.30;55.38;;;;;;;4.72;82.21;100345.47;2189593;81;27502;-69
2022/11/25 04:00:49;;;;;;;123.70;53.52;;;;;;;4.74;82.27;100353.41;2189404;80;28628;-70
2022/11/25 04:03:50;;;;;;;125.27;54.48;;;;;;;4.77;82.31;100349.36;2191625;81;31066;-70
2022/11/25 04:06:52;;;;;;;128.07;54.48;;;;;;;4.79;82.27;100340.91;2191487;81;32370;-69
2022/11/25 04:09:53;;;;;;;133.12;56.95;;;;;;;4.78;82.15;100344.47;2191516;81;30099;-69
2022/11/25 04:12:54;;;;;;;112.68;53.95;;;;;;;4.80;82.27;100348.81;2191576;81;27733;-69
2022/11/25 04:15:56;;;;;;;127.55;54.27;;;;;;;4.82;82.31;100341.69;2191507;81;29429;-70
2022/11/25 04:18:57;;;;;;;117.15;52.58;;;;;;;4.83;82.32;100342.11;2191484;81;31059;-71
2022/11/25 04:22:00;;;;;;;117.35;54.60;;;;;;;4.86;82.30;100342.48;2191599;81;32982;-69
2022/11/25 04:25:01;;;;;;;111.25;53.87;;;;;;;4.89;82.33;100333.55;2191531;81;29318;-71
2022/11/25 04:28:04;;;;;;;115.50;52.05;;;;;;;4.90;82.24;100343.27;2191599;81;27678;-69
2022/11/25 04:31:07;;;;;;;112.75;52.60;;;;;;;4.91;82.31;100349.88;2191400;81;28656;-70
2022/11/25 04:34:08;;;;;;;105.20;52.40;;;;;;;4.92;82.29;100349.41;2191494;81;31008;-69
2022/11/25 04:37:10;;;;;;;117.90;56.60;;;;;;;4.94;82.35;100348.48;2191543;81;33701;-69
2022/11/25 04:40:12;;;;;;;108.03;52.88;;;;;;;4.96;82.35;100356.39;2191169;81;29380;-69
2022/11/25 04:43:13;;;;;;;114.88;57.00;;;;;;;4.97;82.28;100355.48;2191857;81;27685;-70
2022/11/25 04:46:21;;;;;;;112.45;55.55;;;;;;;4.98;82.33;100353.24;2191499;81;28640;-69
2022/11/25 04:49:23;;;;;;;126.50;59.38;;;;;;;5.00;82.42;100352.75;2191466;81;31196;-70
2022/11/25 04:52:25;;;;;;;122.00;59.90;;;;;;;5.01;82.39;100355.83;2191414;81;33564;-69
2022/11/25 04:55:26;;;;;;;134.85;62.60;;;;;;;4.97;82.29;100352.36;2191465;81;30105;-70
2022/11/25 05:01:47;;;;;;;124.58;61.40;;;;;;;5.01;82.49;100360.66;2186186;81;29540;-69
2022/11/25 05:04:50;;;;;;;124.25;61.70;;;;;;;5.02;82.38;100353.12;2181839;81;31047;-68
2022/11/25 05:07:52;;;;;;;130.18;63.20;;;;;;;5.01;82.35;100368.63;2181749;81;32981;-70
2022/11/25 05:10:53;;;;;;;139.55;65.42;;;;;;;4.97;82.25;100363.45;2181916;81;30113;-68
2022/11/25 05:13:54;;;;;;;138.35;68.85;;;;;;;4.95;82.21;100359.52;2181875;81;28221;-69
2022/11/25 05:16:55;;;;;;;146.15;69.32;;;;;;;4.88;82.12;100367.20;2181982;81;28636;-70
2022/11/25 05:19:57;;;;;;;135.48;65.45;;;;;;;4.87;82.33;100373.42;2181600;81;31077;-69
2022/11/25 05:22:59;;;;;;;134.27;64.80;;;;;;;4.84;82.30;100378.80;2181904;81;32944;-68
2022/11/25 05:26:03;;;;;;;135.43;61.33;;;;;;;4.84;82.37;100380.13;2181950;81;29476;-70
2022/11/25 05:29:04;;;;;;;131.70;62.95;;;;;;;4.80;82.24;100378.02;2181915;81;28299;-69
2022/11/25 05:32:06;;;;;;;121.50;60.58;;;;;;;4.79;82.42;100388.68;2181820;81;29436;-70
2022/11/25 05:35:08;;;;;;;138.72;61.63;;;;;;;4.79;82.45;100379.39;2166816;81;30992;-70
2022/11/25 05:38:09;;;;;;;128.25;59.38;;;;;;;4.77;82.39;100386.52;2181881;81;33757;-69
2022/11/25 05:41:11;;;;;;;116.73;57.10;;;;;;;4.77;82.50;100391.34;2181900;81;29305;-71
2022/11/25 05:44:12;;;;;;;131.40;58.87;;;;;;;4.81;82.63;100397.45;2181978;81;27580;-70
2022/11/25 05:47:13;;;;;;;120.97;57.38;;;;;;;4.83;82.66;100393.87;2181789;81;28634;-70
2022/11/25 05:50:15;;;;;;;130.10;56.08;;;;;;;4.86;82.67;100399.55;2181888;81;31002;-71
2022/11/25 05:53:16;;;;;;;123.28;57.98;;;;;;;4.88;82.62;100398.20;2181857;81;32924;-70
2022/11/25 05:56:17;;;;;;;124.97;56.83;;;;;;;4.90;82.61;100398.57;2181784;81;29383;-68
2022/11/25 05:59:18;;;;;;;133.65;61.65;;;;;;;4.92;82.65;100404.72;2182086;81;27605;-68
2022/11/25 06:02:20;;;;;;;126.20;59.00;;;;;;;4.94;82.61;100405.99;2178285;80;28729;-67
2022/11/25 06:05:21;;;;;;;126.10;60.70;;;;;;;4.95;82.60;100404.64;2219815;80;31894;-67
2022/11/25 06:08:23;;;;;;;122.62;59.27;;;;;;;4.97;82.65;100408.58;2219861;80;33962;-66
2022/11/25 06:11:27;;;;;;;120.62;56.45;;;;;;;4.97;82.55;100409.44;2185095;80;29340;-66
2022/11/25 06:14:28;;;;;;;129.33;57.73;;;;;;;5.00;82.53;100415.14;2142747;83;27526;-68
2022/11/25 06:17:30;;;;;;;118.57;56.00;;;;;;;4.99;82.53;100410.75;2142578;83;28648;-71
2022/11/25 06:20:31;;;;;;;117.05;56.60;;;;;;;4.99;82.58;100415.58;2158188;82;31026;-71
2022/11/25 06:23:33;;;;;;;132.70;64.42;;;;;;;5.00;82.55;100412.49;2142654;83;33124;-70
2022/11/25 06:26:34;;;;;;;130.18;64.42;;;;;;;5.01;82.57;100410.25;2142574;83;30234;-71
2022/11/25 06:29:35;;;;;;;139.75;67.58;;;;;;;5.00;82.58;100408.51;2158275;82;27598;-72
2022/11/25 06:32:37;;;;;;;152.53;73.12;;;;;;;5.02;82.69;100421.30;2142351;83;28616;-72
2022/11/25 06:35:38;;;;;;;160.48;73.55;;;;;;;5.04;82.66;100423.90;2158205;82;31010;-71
2022/11/25 06:38:39;;;;;;;159.65;74.82;;;;;;;5.05;82.69;100426.97;2142527;83;33097;-71
2022/11/25 06:41:40;;;;;;;142.00;73.75;;;;;;;5.07;82.72;100427.81;2158253;82;30063;-68
2022/11/25 06:44:42;;;;;;;134.75;69.15;;;;;;;5.09;82.76;100429.51;2142631;83;28220;-71
2022/11/25 06:47:43;;;;;;;143.15;70.52;;;;;;;5.11;82.72;100429.48;2158212;82;28651;-72
2022/11/25 06:50:44;;;;;;;143.17;71.22;;;;;;;5.12;82.74;100430.77;2142662;82;30417;-69
2022/11/25 06:53:46;;;;;;;136.03;71.47;;;;;;;5.16;82.74;100434.20;2158142;82;32920;-69
2022/11/25 06:56:50;;;;;;;142.47;69.90;;;;;;;5.17;82.70;100431.97;2142811;83;29389;-72
2022/11/25 06:59:51;;;;;;;137.05;71.37;;;;;;;5.20;82.78;100435.88;2158210;82;27684;-71
2022/11/25 07:02:52;;;;;;;139.50;68.42;;;;;;;5.23;82.75;100439.80;2147324;82;28786;-70
2022/11/25 07:05:57;;;;;;;133.93;69.42;;;;;;;5.26;82.73;100440.16;2146041;82;32074;-70
2022/11/25 07:08:59;;;;;;;119.80;67.47;;;;;;;5.29;82.75;100440.98;2224365;79;32791;-68
2022/11/25 07:12:00;;;;;;;129.55;66.92;;;;;;;5.32;82.65;100441.34;2224288;79;29318;-69
2022/11/25 07:15:02;;;;;;;136.97;65.87;;;;;;;5.35;82.71;100435.06;2224350;79;27724;-70
2022/11/25 07:18:04;;;;;;;142.28;68.83;;;;;;;5.37;82.76;100443.87;2224293;80;28679;-70
2022/11/25 07:21:08;;;;;;;124.67;65.87;;;;;;;5.41;82.75;100448.20;2224089;80;31010;-71
2022/11/25 07:24:13;;;;;;;134.18;64.60;;;;;;;5.44;82.83;100452.12;2224356;80;32959;-70
2022/11/25 07:27:14;;;;;;;138.75;68.20;;;;;;;5.50;82.89;100455.06;2224292;80;29366;-71
2022/11/25 07:30:16;;;;;;;136.12;67.55;;;;;;;5.55;82.88;100459.78;2224270;79;27756;-68
2022/11/25 07:33:18;;;;;;;132.05;63.40;;;;;;;5.59;82.93;100457.47;2222705;80;28615;-70
2022/11/25 07:36:19;;;;;;;131.18;65.50;;;;;;;5.65;83.01;100456.42;2222403;79;31002;-69
2022/11/25 07:39:22;;;;;;;118.40;62.25;;;;;;;5.72;83.02;100460.68;2222483;80;32908;-69
2022/11/25 07:42:26;;;;;;;126.80;63.63;;;;;;;5.79;83.04;100460.94;2222401;80;29344;-70
2022/11/25 07:45:27;;;;;;;131.80;63.52;;;;;;;5.87;83.06;100459.41;2222862;80;27666;-67
2022/11/25 07:48:29;;;;;;;124.75;60.60;;;;;;;5.92;82.99;100463.67;2222033;80;29774;-70
2022/11/25 07:51:38;;;;;;;126.30;62.58;;;;;;;5.99;82.96;100453.73;2222357;80;31006;-69
2022/11/25 07:54:39;;;;;;;120.62;61.85;;;;;;;6.07;83.04;100457.06;2220884;79;32951;-70
2022/11/25 07:57:40;;;;;;;122.87;61.35;;;;;;;6.16;83.09;100449.75;2222601;80;29358;-70
2022/11/25 08:00:41;;;;;;;118.05;60.98;;;;;;;6.23;83.00;100460.61;2222684;79;27608;-70
2022/11/25 08:03:44;;;;;;;135.35;64.37;;;;;;;6.27;82.85;100456.95;2219460;79;28616;-70
2022/11/25 08:06:48;;;;;;;126.92;60.15;;;;;;;6.33;82.88;100457.23;2218524;80;31901;-69
2022/11/25 08:09:50;;;;;;;127.20;60.03;;;;;;;6.32;82.70;100467.01;2218843;80;33798;-69
2022/11/25 08:12:52;;;;;;;125.50;61.00;;;;;;;6.36;82.78;100466.02;2189188;81;30029;-69
2022/11/25 08:15:59;;;;;;;121.90;59.23;;;;;;;6.38;82.66;100471.27;2189324;81;27675;-69
2022/11/25 08:19:04;;;;;;;131.35;62.88;;;;;;;6.41;82.80;100475.62;2189280;80;28654;-69
2022/11/25 08:22:05;;;;;;;135.85;63.52;;;;;;;6.44;82.83;100472.44;2189313;81;30992;-69
2022/11/25 08:25:07;;;;;;;154.10;66.20;;;;;;;6.48;82.91;100474.53;2189307;81;32940;-70
2022/11/25 08:28:09;;;;;;;163.25;63.75;;;;;;;6.50;82.87;100480.22;2189204;80;29171;-69
2022/11/25 08:31:15;;;;;;;146.37;63.70;;;;;;;6.54;83.02;100480.98;2189199;81;27967;-70
2022/11/25 08:34:22;;;;;;;152.65;64.47;;;;;;;6.58;83.07;100482.65;2189318;81;28660;-69
2022/11/25 08:37:23;;;;;;;145.45;66.87;;;;;;;6.64;83.15;100481.58;2189353;81;31776;-67
2022/11/25 08:40:24;;;;;;;162.15;69.55;;;;;;;6.65;83.07;100476.23;2189218;80;32944;-70
2022/11/25 08:43:26;;;;;;;154.10;68.07;;;;;;;6.68;83.07;100479.25;2189358;81;29321;-71
2022/11/25 08:46:33;;;;;;;155.57;67.27;;;;;;;6.72;83.11;100483.56;2189315;81;27708;-70
2022/11/25 08:49:34;;;;;;;155.70;66.00;;;;;;;6.74;83.07;100480.41;2189253;80;28651;-70
2022/11/25 08:52:35;;;;;;;162.65;66.10;;;;;;;6.76;83.13;100481.23;2189311;81;31061;-71
2022/11/25 08:55:37;;;;;;;161.95;67.45;;;;;;;6.83;83.22;100480.58;2189148;81;32973;-70
2022/11/25 08:58:39;;;;;;;160.18;67.82;;;;;;;6.89;83.26;100487.50;2189236;81;29407;-71
2022/11/25 09:01:40;;;;;;;168.75;68.72;;;;;;;6.93;83.23;100484.69;2190358;81;27623;-69
2022/11/25 09:04:42;;;;;;;161.35;64.95;;;;;;;6.99;83.23;100491.60;2190848;81;29497;-73
2022/11/25 09:07:43;;;;;;;163.82;67.27;;;;;;;7.01;83.21;100489.77;2191226;81;31045;-68
2022/11/25 09:10:45;;;;;;;163.00;72.03;;;;;;;7.07;83.21;100498.02;2191311;81;33775;-67
2022/11/25 09:13:46;;;;;;;154.27;68.25;;;;;;;7.10;83.18;100492.59;2191335;81;29293;-68
2022/11/25 09:16:48;;;;;;;172.80;69.97;;;;;;;7.16;83.21;100497.74;2146462;82;27720;-68
2022/11/25 09:19:49;;;;;;;153.85;67.62;;;;;;;7.16;83.16;100500.41;2138634;83;29560;-68
2022/11/25 09:22:50;;;;;;;152.43;68.52;;;;;;;7.26;83.40;100494.32;2146239;82;31032;-68
2022/11/25 09:25:57;;;;;;;155.97;68.02;;;;;;;7.33;83.33;100494.98;2138868;82;32990;-69
2022/11/25 09:28:59;;;;;;;150.35;64.55;;;;;;;7.43;83.52;100493.30;2146226;82;30138;-68
2022/11/25 09:32:00;;;;;;;134.60;58.38;;;;;;;7.57;83.62;100485.30;2137692;83;27602;-68
2022/11/25 09:35:02;;;;;;;132.22;57.33;;;;;;;7.69;83.67;100490.20;2106405;84;28708;-69
2022/11/25 09:38:03;;;;;;;142.13;60.52;;;;;;;7.81;83.57;100480.02;2106397;84;30954;-68
2022/11/25 09:46:40;;;;;;;135.78;58.20;;;;;;;7.90;83.39;100473.89;2106378;84;33754;-68
2022/11/25 09:48:17;;;;;;;126.72;54.25;;;;;;;8.10;83.21;100482.13;2136982;83;27708;-69
2022/11/25 09:51:42;;;;;;;110.28;51.50;;;;;;;8.17;83.09;100480.95;2131484;83;28672;-69
2022/11/25 09:55:09;;;;;;;116.00;50.70;;;;;;;8.25;83.01;100482.89;2147479;81;31069;-68
2022/11/25 09:58:36;;;;;;;104.97;51.02;;;;;;;8.29;82.72;100480.48;2138315;83;32941;-68
2022/11/25 10:01:57;;;;;;;111.92;53.28;;;;;;;8.39;83.01;100485.50;2138301;83;30246;-69
2022/11/25 10:05:04;;;;;;;101.05;52.30;;;;;;;8.46;82.67;100485.66;2158675;81;27781;-68
2022/11/25 10:08:13;;;;;;;115.12;51.73;;;;;;;8.50;82.54;100476.64;2159426;82;28771;-69
2022/11/25 10:11:32;;;;;;;119.72;51.23;;;;;;;8.64;82.85;100475.64;2159457;82;31860;-70
2022/11/25 10:14:47;;;;;;;109.07;50.48;;;;;;;8.78;82.53;100472.45;2157548;82;32959;-70
2022/11/25 10:17:52;;;;;;;100.18;51.37;;;;;;;8.96;82.59;100472.64;2159092;82;29342;-68
2022/11/25 10:20:53;;;;;;;111.52;52.03;;;;;;;9.07;82.41;100471.73;2159814;82;27629;-68
2022/11/25 10:23:55;;;;;;;115.95;53.28;;;;;;;9.23;82.44;100469.31;2166318;80;28647;-68
2022/11/25 10:27:00;;;;;;;106.80;53.40;;;;;;;9.39;82.31;100472.69;2135103;82;31851;-69
2022/11/25 10:30:07;;;;;;;105.10;53.58;;;;;;;9.56;82.40;100475.52;2221237;80;33761;-69
2022/11/25 10:33:29;;;;;;;107.32;53.58;;;;;;;9.74;82.16;100472.98;2224824;79;30118;-69
2022/11/25 10:36:37;;;;;;;108.32;51.23;;;;;;;9.88;81.72;100469.69;2225513;79;27665;-68
2022/11/25 10:39:39;;;;;;;114.28;52.43;;;;;;;9.95;81.54;100476.52;2225344;80;28659;-68
2022/11/25 10:42:41;;;;;;;98.55;51.90;;;;;;;10.04;81.68;100468.55;2225141;79;32232;-69
2022/11/25 10:46:09;;;;;;;99.97;50.85;;;;;;;10.10;81.29;100471.41;2225142;79;33039;-68
2022/11/25 10:49:30;;;;;;;100.20;48.05;;;;;;;10.14;81.18;100472.54;2224188;79;29347;-68
2022/11/25 10:52:36;;;;;;;80.00;40.75;;;;;;;10.16;80.85;100476.02;2214700;80;27690;-68
2022/11/25 10:55:38;;;;;;;81.72;40.05;;;;;;;10.25;80.92;100476.56;2220753;80;29739;-68
2022/11/25 10:58:41;;;;;;;62.08;32.00;;;;;;;10.32;80.68;100469.97;2219964;80;31001;-69
2022/11/25 11:01:42;;;;;;;56.77;29.72;;;;;;;10.43;80.64;100477.55;2220048;80;32984;-68
2022/11/25 11:05:10;;;;;;;35.65;20.43;;;;;;;10.55;80.39;100472.95;2174674;80;29314;-68
2022/11/25 11:08:23;;;;;;;28.90;16.70;;;;;;;10.67;80.27;100481.37;2191622;81;27690;-68
2022/11/25 11:11:25;;;;;;;24.60;14.03;;;;;;;10.76;79.77;100483.60;2189738;81;29515;-68
2022/11/25 11:14:28;;;;;;;32.55;15.25;;;;;;;10.78;79.54;100484.41;2189553;81;31880;-68
2022/11/25 11:17:34;;;;;;;31.27;15.55;;;;;;;10.76;79.24;100492.49;2189606;80;33755;-68
2022/11/25 11:20:35;;;;;;;35.20;19.37;;;;;;;10.76;79.15;100495.66;2189603;81;29324;-68
2022/11/25 11:23:50;;;;;;;36.70;19.45;;;;;;;10.73;79.04;100489.98;2189880;80;27682;-69
2022/11/25 11:27:20;;;;;;;37.28;21.15;;;;;;;10.73;78.77;100487.76;2189813;81;28739;-69
2022/11/25 11:30:28;;;;;;;41.77;23.18;;;;;;;10.65;78.48;100488.13;2152856;82;30443;-69
2022/11/25 11:33:42;;;;;;;41.23;22.98;;;;;;;10.57;78.22;100487.63;2152991;82;33927;-69
2022/11/25 11:37:21;;;;;;;38.78;22.25;;;;;;;10.56;78.45;100479.19;2153023;82;30098;-68
2022/11/25 11:40:36;;;;;;;37.05;21.17;;;;;;;10.56;78.44;100477.85;2141721;82;27803;-68
2022/11/25 11:43:55;;;;;;;;;;;;;;;10.58;78.46;100474.15;2150074;81;28788;-69
2022/11/25 11:47:10;;;;;;;36.17;20.05;;;;;;;10.64;78.15;100477.00;2153127;82;31208;-69
2022/11/25 11:50:20;;;;;;;28.45;17.48;;;;;;;10.67;78.29;100475.53;2153052;82;32984;-68
2022/11/25 11:53:29;;;;;;;31.62;16.77;;;;;;;10.68;77.94;100477.72;2151730;82;29355;-68
2022/11/25 11:56:43;;;;;;;28.23;17.25;;;;;;;10.69;77.87;100476.33;2151349;82;27677;-68
2022/11/25 11:59:52;;;;;;;34.85;18.70;;;;;;;10.72;77.84;100478.87;2151058;82;28655;-68
2022/11/25 12:03:13;;;;;;;29.32;18.37;;;;;;;10.77;77.65;100479.98;2149680;82;31162;-68
2022/11/25 12:06:16;;;;;;;32.93;19.77;;;;;;;10.79;77.43;100475.42;2148784;82;33670;-68
2022/11/25 12:09:20;;;;;;;31.90;18.57;;;;;;;10.77;77.35;100478.64;2127775;82;30162;-68
2022/11/25 12:12:49;;;;;;;39.10;20.12;;;;;;;10.80;77.48;100475.82;2151106;82;27624;-69
2022/11/25 12:16:06;;;;;;;40.70;22.73;;;;;;;10.80;77.21;100477.16;2151044;82;28832;-68
2022/11/25 12:19:25;;;;;;;48.90;25.23;;;;;;;10.83;77.25;100472.11;2150832;82;31738;-68
2022/11/25 12:22:37;;;;;;;43.73;25.68;;;;;;;10.81;77.03;100474.00;2129792;82;32974;-68
2022/11/25 12:25:41;;;;;;;47.03;27.93;;;;;;;10.77;76.92;100479.50;2174321;80;30221;-68
2022/11/25 12:28:59;;;;;;;53.42;28.95;;;;;;;10.77;76.92;100466.58;2167557;81;27730;-68
2022/11/25 12:32:35;;;;;;;50.25;28.95;;;;;;;10.78;76.93;100469.66;2178124;81;29467;-68
2022/11/25 12:36:05;;;;;;;60.55;37.63;;;;;;;10.78;76.91;100470.52;2178008;80;31024;-68
2022/11/25 12:39:27;;;;;;;49.05;26.73;;;;;;;10.82;76.97;100468.58;2177716;81;34099;-67
2022/11/25 12:42:32;;;;;;;47.25;25.85;;;;;;;10.82;76.71;100467.70;2178430;80;29331;-68
2022/11/25 12:45:34;;;;;;;42.58;25.65;;;;;;;10.82;76.59;100467.70;2167641;81;27692;-68
2022/11/25 12:48:41;;;;;;;46.77;25.62;;;;;;;10.78;76.59;100471.86;2177505;80;27698;-68
2022/11/25 12:52:19;;;;;;;50.78;28.02;;;;;;;10.81;76.73;100467.30;2176566;80;31816;-69
2022/11/25 12:55:23;;;;;;;49.10;29.98;;;;;;;10.82;76.64;100464.56;2209407;80;32964;-69
2022/11/25 12:58:56;;;;;;;50.50;29.25;;;;;;;10.81;76.49;100471.31;2209713;80;29325;-69
2022/11/25 13:02:41;;;;;;;49.18;29.05;;;;;;;10.77;76.38;100471.45;2188452;79;27657;-69
2022/11/25 13:06:00;;;;;;;50.10;28.37;;;;;;;10.75;76.24;100477.84;2146548;81;28691;-66
2022/11/25 13:09:30;;;;;;;51.73;27.07;;;;;;;10.68;76.05;100473.70;2184174;81;31047;-66
2022/11/25 13:12:55;;;;;;;45.43;25.17;;;;;;;10.65;76.13;100482.77;2167492;81;33213;-65
2022/11/25 13:15:57;;;;;;;42.55;23.52;;;;;;;10.66;76.04;100476.47;2198257;80;29307;-64
2022/11/25 13:18:59;;;;;;;45.98;26.05;;;;;;;10.64;76.04;100473.88;2203947;79;27564;-63
2022/11/25 13:22:05;;;;;;;42.60;26.70;;;;;;;10.67;75.98;100476.02;2201922;80;28681;-63
2022/11/25 13:25:25;;;;;;;44.18;26.35;;;;;;;10.67;75.98;100480.89;2148752;82;32054;-64
2022/11/25 13:28:34;;;;;;;43.87;26.85;;;;;;;10.66;75.83;100478.30;2095364;84;34100;-60
2022/11/25 13:32:01;;;;;;;48.13;28.02;;;;;;;10.63;75.68;100480.17;2104754;84;29686;-61
2022/11/25 13:35:31;;;;;;;42.35;23.50;;;;;;;10.60;75.63;100482.09;2014276;87;27761;-62
2022/11/25 13:38:40;;;;;;;39.58;22.65;;;;;;;10.53;75.54;100480.19;2004455;88;29893;-62
2022/11/25 13:41:54;;;;;;;38.80;22.65;;;;;;;10.49;75.63;100479.95;2005212;87;31036;-65
2022/11/25 13:44:58;;;;;;;37.17;22.62;;;;;;;10.47;75.59;100485.36;1953085;91;33504;-62
2022/11/25 13:48:30;;;;;;;37.33;22.58;;;;;;;10.44;75.62;100488.66;1974269;89;30331;-61
2022/11/25 13:51:32;;;;;;;40.65;23.77;;;;;;;10.42;75.65;100484.72;1947682;91;27808;-63
2022/11/25 13:54:52;;;;;;;40.75;22.87;;;;;;;10.37;75.55;100480.45;1962597;89;29020;-64
2022/11/25 13:58:19;;;;;;;38.73;22.17;;;;;;;10.30;75.44;100487.45;1978539;88;31035;-61
2022/11/25 14:01:23;;;;;;;50.25;24.32;;;;;;;10.26;75.57;100486.33;1953633;91;33525;-61
2022/11/25 14:04:50;;;;;;;39.48;23.02;;;;;;;10.22;75.54;100490.08;1979275;88;30157;-62
2022/11/25 14:08:31;;;;;;;40.28;23.73;;;;;;;10.16;75.58;100494.77;1985204;89;27790;-63
2022/11/25 14:11:56;;;;;;;41.48;23.47;;;;;;;10.11;75.55;100498.11;2029911;86;29495;-62
2022/11/25 14:15:28;;;;;;;43.92;24.55;;;;;;;10.06;75.56;100501.92;2061763;86;31034;-63
2022/11/25 14:18:48;;;;;;;44.25;23.77;;;;;;;10.01;75.54;100500.80;2031319;87;33736;-66
2022/11/25 14:22:23;;;;;;;40.00;24.37;;;;;;;9.95;75.58;100499.27;2113500;82;30532;-66